Time;durP1;ratioP1;P1;durP2;ratioP2;P2;SDS_P1;SDS_P2;PMS_P1;PMS_P2;Temp;Humidity;BMP_temperature;BMP_pressure;BME280_temperature;BME280_humidity;BME280_pressure;Samples;Min_cycle;Max_cycle;Signal;HPM_P1;HPM_P2
2023/01/04 00:02:20;;;;;;;;;;;;;;;5.32;75.06;99561.31;7375834;19;19934;-81
2023/01/04 00:04:47;;;;;;;;;;;;;;;5.33;75.05;99555.16;7385124;19;20710;-81
2023/01/04 00:07:14;;;;;;;;;;;;;;;5.31;74.94;99562.28;7382608;19;20333;-81
2023/01/04 00:09:40;;;;;;;;;;;;;;;5.36;74.70;99560.22;7387639;19;19994;-81
2023/01/04 00:12:07;;;;;;;;;;;;;;;5.23;75.38;99571.44;7387277;19;19929;-80
2023/01/04 00:14:34;;;;;;;;;;;;;;;5.15;75.51;99564.97;7384728;19;19911;-80
2023/01/04 00:17:00;;;;;;;;;;;;;;;5.18;75.30;99556.91;7386782;19;19930;-80
2023/01/04 00:19:31;;;;;;;;;;;;;;;5.14;75.43;99548.41;7382108;19;19922;-81
2023/01/04 00:21:58;;;;;;;;;;;;;;;5.06;75.42;99550.66;7386810;19;19940;-81
2023/01/04 00:24:24;;;;;;;;;;;;;;;5.03;75.43;99542.97;7381818;19;20270;-80
2023/01/04 00:26:51;;;;;;;;;;;;;;;4.99;75.36;99542.28;7382513;19;19923;-80
2023/01/04 00:29:18;;;;;;;;;;;;;;;5.10;74.92;99544.25;7381259;19;19926;-81
2023/01/04 00:31:45;;;;;;;;;;;;;;;5.00;75.07;99537.88;7380014;19;19930;-81
2023/01/04 00:34:14;;;;;;;;;;;;;;;4.81;75.19;99530.28;7384525;19;20348;-80
2023/01/04 00:36:41;;;;;;;;;;;;;;;4.79;75.52;99514.66;7383531;19;19940;-82
2023/01/04 00:39:09;;;;;;;;;;;;;;;4.73;75.67;99511.53;7385622;19;19978;-81
2023/01/04 00:41:36;;;;;;;;;;;;;;;4.75;75.61;99497.41;7378065;19;19918;-81
2023/01/04 00:44:24;;;;;;;;;;;;;;;4.72;75.87;99496.75;7379899;19;19915;-82
2023/01/04 00:46:51;;;;;;;;;;;;;;;4.67;75.76;99490.94;7381736;19;19927;-82
2023/01/04 00:49:18;;;;;;;;;;;;;;;4.68;75.81;99488.22;7379646;19;19915;-81
2023/01/04 00:51:44;;;;;;;;;;;;;;;4.68;75.86;99492.63;7384449;19;20313;-81
2023/01/04 00:54:12;;;;;;;;;;;;;;;4.76;75.38;99493.00;7380603;19;20364;-81
2023/01/04 00:56:38;;;;;;;;;;;;;;;4.73;75.27;99499.25;7385450;19;20389;-82
2023/01/04 00:59:05;;;;;;;;;;;;;;;4.69;75.24;99495.16;7385644;19;19927;-82
2023/01/04 01:01:32;;;;;;;;;;;;;;;4.70;75.03;99499.44;7379129;19;19990;-81
2023/01/04 01:04:00;;;;;;;;;;;;;;;4.73;74.81;99496.66;7387578;19;19918;-81
2023/01/04 01:06:27;;;;;;;;;;;;;;;4.81;74.48;99506.69;7379231;19;19922;-81
2023/01/04 01:08:54;;;;;;;;;;;;;;;4.72;74.71;99513.31;7386903;19;20324;-82
2023/01/04 01:11:21;;;;;;;;;;;;;;;4.79;74.36;99514.66;7381838;19;20004;-82
2023/01/04 01:13:48;;;;;;;;;;;;;;;4.80;74.10;99502.38;7382367;19;19922;-82
2023/01/04 01:16:19;;;;;;;;;;;;;;;4.62;74.51;99514.78;7380569;19;19918;-82
2023/01/04 01:19:06;;;;;;;;;;;;;;;4.52;74.87;99513.63;7387447;19;19943;-80
2023/01/04 01:21:33;;;;;;;;;;;;;;;4.55;74.84;99505.59;7383871;19;19915;-81
2023/01/04 01:23:59;;;;;;;;;;;;;;;4.61;74.54;99507.88;7390707;19;19915;-82
2023/01/04 01:26:26;;;;;;;;;;;;;;;4.59;74.95;99496.63;7378509;19;19911;-82
2023/01/04 01:28:52;;;;;;;;;;;;;;;4.65;74.55;99505.91;7379694;19;19922;-82
2023/01/04 01:31:20;;;;;;;;;;;;;;;4.71;74.10;99503.75;7378572;19;19925;-81
2023/01/04 01:33:47;;;;;;;;;;;;;;;4.73;74.10;99514.16;7382083;19;19927;-81
2023/01/04 01:36:15;;;;;;;;;;;;;;;4.79;73.45;99512.03;7377828;19;19915;-81
2023/01/04 01:38:42;;;;;;;;;;;;;;;4.67;73.58;99519.78;7378151;19;19944;-82
2023/01/04 01:41:14;;;;;;;;;;;;;;;4.56;73.33;99523.03;7377366;19;20265;-81
2023/01/04 01:44:01;;;;;;;;;;;;;;;4.46;73.78;99529.72;7377666;19;20252;-81
2023/01/04 01:46:29;;;;;;;;;;;;;;;4.27;74.01;99522.94;7371805;19;19918;-81
2023/01/04 01:49:15;;;;;;;;;;;;;;;4.34;74.28;99534.72;7382075;19;19938;-82
2023/01/04 01:51:41;;;;;;;;;;;;;;;4.35;74.29;99525.94;7382146;19;20671;-81
2023/01/04 01:54:12;;;;;;;;;;;;;;;4.35;74.80;99522.50;7381397;19;19915;-81
2023/01/04 01:56:38;;;;;;;;;;;;;;;4.48;74.70;99520.84;7379838;19;19922;-82
2023/01/04 01:59:05;;;;;;;;;;;;;;;4.44;74.57;99515.88;7381260;19;20344;-81
2023/01/04 02:01:32;;;;;;;;;;;;;;;4.50;74.47;99511.13;7373420;19;19915;-81
2023/01/04 02:03:58;;;;;;;;;;;;;;;4.66;74.58;99512.81;7382652;19;19911;-82
2023/01/04 02:06:29;;;;;;;;;;;;;;;4.64;74.10;99512.09;7374439;19;20378;-82
2023/01/04 02:08:55;;;;;;;;;;;;;;;4.68;74.12;99495.22;7381362;19;19919;-81
2023/01/04 02:11:22;;;;;;;;;;;;;;;4.64;74.38;99509.47;7377168;19;20289;-82
2023/01/04 02:16:42;;;;;;;;;;;;;;;4.69;74.03;99508.25;7376938;19;22249;-81
2023/01/04 02:19:27;;;;;;;;;;;;;;;4.71;74.20;99509.00;7380110;19;19942;-81
2023/01/04 02:22:03;;;;;;;;;;;;;;;4.71;73.99;99511.63;7381335;19;19923;-81
2023/01/04 02:24:48;;;;;;;;;;;;;;;4.69;73.99;99500.41;7376610;19;19929;-81
2023/01/04 02:27:33;;;;;;;;;;;;;;;4.61;74.12;99500.00;7378407;19;19974;-80
2023/01/04 02:30:02;;;;;;;;;;;;;;;4.52;74.69;99498.75;7382899;19;19911;-81
2023/01/04 02:32:32;;;;;;;;;;;;;;;4.53;74.70;99494.34;7371989;19;19911;-82
2023/01/04 02:35:01;;;;;;;;;;;;;;;4.50;74.93;99491.91;7376315;19;19919;-82
2023/01/04 02:37:28;;;;;;;;;;;;;;;4.67;74.58;99486.53;7374897;19;20276;-80
2023/01/04 02:39:54;;;;;;;;;;;;;;;4.48;74.98;99484.16;7384000;19;19928;-81
2023/01/04 02:45:29;;;;;;;;;;;;;;;4.50;74.97;99473.56;7374707;19;19957;-81
2023/01/04 02:50:49;;;;;;;;;;;;;;;4.70;74.37;99467.16;7379192;19;20002;-82
2023/01/04 02:53:20;;;;;;;;;;;;;;;4.67;74.28;99456.88;7377050;19;19965;-80
2023/01/04 02:55:49;;;;;;;;;;;;;;;4.56;74.47;99458.34;7384742;19;19925;-81
2023/01/04 02:58:21;;;;;;;;;;;;;;;4.47;74.77;99451.00;7387445;19;19927;-81
2023/01/04 03:07:08;;;;;;;;;;;;;;;4.40;75.04;99452.31;7386046;19;19923;-82
2023/01/04 03:09:35;;;;;;;;;;;;;;;4.32;75.02;99449.31;7385217;19;19919;-82
2023/01/04 03:14:50;;;;;;;;;;;;;;;4.36;74.21;99443.78;7385618;19;19914;-81
2023/01/04 03:17:18;;;;;;;;;;;;;;;4.32;74.76;99437.06;7381327;19;19933;-81
2023/01/04 03:19:52;;;;;;;;;;;;;;;4.07;75.38;99436.78;7379315;19;19922;-81
2023/01/04 03:36:37;;;;;;;;;;;;;;;4.21;74.51;99410.63;7380053;19;20329;-81
2023/01/04 03:50:37;;;;;;;;;;;;;;;4.21;75.80;99402.78;7381368;19;19996;-81
2023/01/04 03:53:04;;;;;;;;;;;;;;;4.47;75.15;99409.09;7385356;19;19922;-81
2023/01/04 03:55:31;;;;;;;;;;;;;;;4.52;75.09;99416.69;7378029;19;19926;-81
2023/01/04 03:57:58;;;;;;;;;;;;;;;4.72;74.33;99408.47;7382748;19;19926;-81
2023/01/04 04:00:24;;;;;;;;;;;;;;;4.79;74.38;99407.16;7379660;19;19915;-82
2023/01/04 04:02:51;;;;;;;;;;;;;;;4.71;74.74;99412.00;7382188;19;20295;-80
2023/01/04 04:10:54;;;;;;;;;;;;;;;4.95;74.15;99408.81;7385084;19;19947;-81
2023/01/04 04:13:20;;;;;;;;;;;;;;;4.96;74.08;99400.88;7379088;19;20245;-81
2023/01/04 04:15:47;;;;;;;;;;;;;;;5.02;74.01;99403.09;7382808;19;20384;-82
2023/01/04 04:18:14;;;;;;;;;;;;;;;4.97;73.81;99401.69;7384424;19;19926;-81
2023/01/04 04:20:40;;;;;;;;;;;;;;;5.01;73.87;99392.72;7380262;19;19922;-82
2023/01/04 04:23:07;;;;;;;;;;;;;;;5.08;74.21;99404.50;7382631;19;19971;-81
2023/01/04 04:25:33;;;;;;;;;;;;;;;5.04;73.75;99398.59;7377746;19;19923;-82
2023/01/04 04:28:00;;;;;;;;;;;;;;;5.05;74.33;99392.44;7382851;19;19982;-82
2023/01/04 04:30:27;;;;;;;;;;;;;;;5.07;74.13;99394.94;7380704;19;19936;-82
2023/01/04 04:32:53;;;;;;;;;;;;;;;5.22;73.96;99390.53;7386029;19;19918;-80
2023/01/04 04:35:20;;;;;;;;;;;;;;;5.35;73.47;99382.72;7378286;19;19923;-82
2023/01/04 04:37:46;;;;;;;;;;;;;;;5.43;73.34;99383.06;7381578;19;19919;-80
2023/01/04 04:42:58;;;;;;;;;;;;;;;5.41;73.16;99390.19;7382827;19;20359;-82
2023/01/04 04:45:25;;;;;;;;;;;;;;;5.46;73.19;99377.63;7379680;19;19932;-81
2023/01/04 04:47:52;;;;;;;;;;;;;;;5.38;73.39;99380.75;7383436;19;19931;-81
2023/01/04 04:50:18;;;;;;;;;;;;;;;5.43;73.13;99376.03;7383722;19;19947;-81
2023/01/04 04:52:45;;;;;;;;;;;;;;;5.34;73.20;99379.25;7381618;19;19955;-82
2023/01/04 04:55:19;;;;;;;;;;;;;;;5.37;73.31;99362.47;7377019;19;19914;-81
2023/01/04 04:57:45;;;;;;;;;;;;;;;5.41;73.38;99363.97;7383103;19;19951;-81
2023/01/04 05:00:12;;;;;;;;;;;;;;;5.44;73.54;99348.84;7380885;19;19926;-81
2023/01/04 05:02:39;;;;;;;;;;;;;;;5.40;73.67;99350.00;7379804;19;19915;-81
2023/01/04 05:05:06;;;;;;;;;;;;;;;5.41;73.31;99349.03;7382397;19;20349;-81
2023/01/04 05:07:32;;;;;;;;;;;;;;;5.54;72.90;99351.72;7378562;19;19925;-82
2023/01/04 05:09:59;;;;;;;;;;;;;;;5.56;72.81;99351.63;7384186;19;19922;-81
2023/01/04 05:15:11;;;;;;;;;;;;;;;5.70;72.37;99362.06;7379538;19;19915;-81
2023/01/04 05:17:37;;;;;;;;;;;;;;;5.88;71.74;99357.38;7373552;19;19922;-82
2023/01/04 05:20:04;;;;;;;;;;;;;;;5.92;71.95;99353.59;7380135;19;19923;-81
2023/01/04 05:22:31;;;;;;;;;;;;;;;5.79;72.47;99364.06;7375856;19;19943;-81
2023/01/04 05:24:58;;;;;;;;;;;;;;;5.91;72.55;99358.00;7381729;19;19911;-82
2023/01/04 05:27:24;;;;;;;;;;;;;;;5.93;72.69;99357.94;7380289;19;19915;-81
2023/01/04 05:32:36;;;;;;;;;;;;;;;6.06;72.60;99356.19;7381932;19;19970;-84
2023/01/04 05:35:02;;;;;;;;;;;;;;;6.23;72.33;99355.03;7380952;19;19915;-83
2023/01/04 05:37:29;;;;;;;;;;;;;;;6.38;71.84;99355.78;7378829;19;19906;-82
2023/01/04 05:39:56;;;;;;;;;;;;;;;6.28;71.90;99347.69;7385467;19;20354;-82
2023/01/04 05:42:25;;;;;;;;;;;;;;;6.41;71.93;99342.44;7381302;19;19909;-80
2023/01/04 05:44:52;;;;;;;;;;;;;;;6.57;71.36;99344.84;7379504;19;19915;-81
2023/01/04 05:47:19;;;;;;;;;;;;;;;6.63;71.32;99343.56;7379491;19;19915;-81
2023/01/04 05:49:45;;;;;;;;;;;;;;;6.51;71.59;99340.03;7382516;19;19918;-82
2023/01/04 05:52:12;;;;;;;;;;;;;;;6.43;71.63;99343.19;7383953;19;19918;-84
2023/01/04 05:54:39;;;;;;;;;;;;;;;6.46;71.48;99348.22;7378913;19;19919;-85
2023/01/04 05:57:05;;;;;;;;;;;;;;;6.51;71.84;99346.13;7386002;19;19921;-82
2023/01/04 05:59:32;;;;;;;;;;;;;;;6.60;71.50;99345.47;7383155;19;19925;-82
2023/01/04 06:02:09;;;;;;;;;;;;;;;6.53;71.59;99336.34;7384557;19;19915;-81
2023/01/04 06:04:35;;;;;;;;;;;;;;;6.51;71.90;99343.50;7378451;19;19942;-82
2023/01/04 06:07:02;;;;;;;;;;;;;;;6.54;71.52;99345.91;7385147;19;19937;-81
2023/01/04 06:09:29;;;;;;;;;;;;;;;6.70;71.34;99343.03;7377133;19;19915;-82
2023/01/04 06:11:56;;;;;;;;;;;;;;;6.60;71.10;99336.75;7380300;19;19926;-84
2023/01/04 06:14:23;;;;;;;;;;;;;;;6.52;71.43;99341.69;7383270;19;20387;-82
2023/01/04 06:16:49;;;;;;;;;;;;;;;6.57;71.31;99329.91;7385307;19;19915;-81
2023/01/04 06:19:16;;;;;;;;;;;;;;;6.63;71.34;99333.88;7381638;19;19918;-82
2023/01/04 06:21:42;;;;;;;;;;;;;;;6.87;71.01;99336.59;7380805;19;19944;-81
2023/01/04 06:24:09;;;;;;;;;;;;;;;6.98;70.34;99334.06;7382532;19;19919;-82
2023/01/04 06:26:36;;;;;;;;;;;;;;;6.84;71.00;99336.81;7372733;19;19919;-81
2023/01/04 06:29:03;;;;;;;;;;;;;;;6.95;70.94;99326.38;7383638;19;19903;-82
2023/01/04 06:31:29;;;;;;;;;;;;;;;6.99;70.74;99334.88;7383451;19;20548;-81
2023/01/04 06:33:56;;;;;;;;;;;;;;;6.87;70.82;99331.31;7389626;19;19926;-83
2023/01/04 06:36:22;;;;;;;;;;;;;;;6.93;70.69;99327.44;7384244;19;19922;-82
2023/01/04 06:38:49;;;;;;;;;;;;;;;6.99;70.54;99327.81;7390874;19;19936;-84
2023/01/04 06:41:16;;;;;;;;;;;;;;;6.92;70.48;99326.56;7390211;19;19925;-81
2023/01/04 06:43:43;;;;;;;;;;;;;;;6.94;70.38;99327.31;7380235;19;19935;-85
2023/01/04 06:46:09;;;;;;;;;;;;;;;7.11;70.10;99322.63;7384503;19;19921;-81
2023/01/04 06:48:40;;;;;;;;;;;;;;;6.98;70.36;99323.53;7380412;19;19949;-83
2023/01/04 06:51:08;;;;;;;;;;;;;;;7.00;70.11;99320.78;7385962;19;20496;-82
2023/01/04 06:53:34;;;;;;;;;;;;;;;7.08;70.24;99318.41;7387658;19;19946;-83
2023/01/04 06:56:01;;;;;;;;;;;;;;;7.14;70.18;99325.91;7390233;19;20304;-83
2023/01/04 06:58:28;;;;;;;;;;;;;;;7.04;70.37;99323.06;7387166;19;19944;-83
2023/01/04 07:00:54;;;;;;;;;;;;;;;6.93;70.61;99323.00;7383770;19;19930;-85
2023/01/04 07:03:21;;;;;;;;;;;;;;;7.10;70.11;99313.91;7382739;19;19919;-83
2023/01/04 07:05:48;;;;;;;;;;;;;;;6.88;70.67;99319.03;7384723;19;19927;-83
2023/01/04 07:08:14;;;;;;;;;;;;;;;6.98;70.38;99317.44;7388613;19;19919;-82
2023/01/04 07:10:41;;;;;;;;;;;;;;;6.95;70.65;99315.84;7381948;19;19978;-83
2023/01/04 07:13:08;;;;;;;;;;;;;;;6.97;70.62;99318.38;7385861;19;19914;-84
2023/01/04 07:15:34;;;;;;;;;;;;;;;6.93;69.94;99315.13;7378262;19;19919;-84
2023/01/04 07:18:05;;;;;;;;;;;;;;;6.99;70.01;99325.19;7387186;19;19919;-83
2023/01/04 07:20:32;;;;;;;;;;;;;;;7.11;70.03;99314.72;7380977;19;19922;-81
2023/01/04 07:22:59;;;;;;;;;;;;;;;7.11;69.86;99312.09;7386765;19;19915;-83
2023/01/04 07:25:25;;;;;;;;;;;;;;;7.01;70.46;99322.47;7381527;19;19919;-83
2023/01/04 07:27:52;;;;;;;;;;;;;;;7.06;70.51;99311.59;7388518;19;19985;-84
2023/01/04 07:30:22;;;;;;;;;;;;;;;6.96;70.46;99314.91;7385120;19;19925;-85
2023/01/04 07:32:50;;;;;;;;;;;;;;;6.94;70.95;99316.78;7384467;19;20535;-85
2023/01/04 07:35:19;;;;;;;;;;;;;;;6.91;70.72;99316.19;7384584;19;19950;-86
2023/01/04 07:37:45;;;;;;;;;;;;;;;6.83;70.76;99308.84;7383898;19;20324;-81
2023/01/04 07:40:17;;;;;;;;;;;;;;;6.87;71.67;99312.06;7388732;19;19915;-84
2023/01/04 07:42:44;;;;;;;;;;;;;;;6.85;72.34;99303.47;7380486;19;19935;-83
2023/01/04 07:45:14;;;;;;;;;;;;;;;6.70;73.24;99308.84;7383523;19;19914;-86
2023/01/04 07:47:40;;;;;;;;;;;;;;;6.62;73.84;99310.34;7380581;19;20411;-83
2023/01/04 07:50:07;;;;;;;;;;;;;;;6.59;74.11;99295.63;7386228;19;20289;-85
2023/01/04 07:52:36;;;;;;;;;;;;;;;6.57;74.82;99297.53;7384092;19;19927;-84
2023/01/04 07:55:03;;;;;;;;;;;;;;;6.50;75.30;99306.78;7390310;19;19919;-85
2023/01/04 07:57:33;;;;;;;;;;;;;;;6.48;75.54;99308.69;7387886;19;19907;-87
2023/01/04 08:00:00;;;;;;;;;;;;;;;6.50;75.54;99302.38;7390610;19;19913;-85
2023/01/04 08:02:37;;;;;;;;;;;;;;;6.53;75.81;99291.66;7382121;19;19925;-84
2023/01/04 08:05:05;;;;;;;;;;;;;;;6.41;76.38;99295.13;7385204;19;19948;-84
2023/01/04 08:07:31;;;;;;;;;;;;;;;6.56;76.21;99295.84;7386269;19;19919;-85
2023/01/04 08:09:58;;;;;;;;;;;;;;;6.43;76.04;99289.78;7391309;19;19940;-84
2023/01/04 08:12:25;;;;;;;;;;;;;;;6.44;76.24;99287.03;7384714;19;20553;-85
2023/01/04 08:14:51;;;;;;;;;;;;;;;6.39;76.50;99278.63;7391318;19;19922;-84
2023/01/04 08:17:18;;;;;;;;;;;;;;;6.47;76.12;99281.53;7394111;19;20263;-83
2023/01/04 08:19:45;;;;;;;;;;;;;;;6.43;76.44;99274.84;7386205;19;19915;-83
2023/01/04 08:22:12;;;;;;;;;;;;;;;6.47;76.03;99276.28;7389897;19;19922;-83
2023/01/04 08:24:39;;;;;;;;;;;;;;;6.49;76.04;99266.50;7388888;19;20094;-83
2023/01/04 08:27:07;;;;;;;;;;;;;;;6.60;75.75;99266.59;7392689;19;19963;-84
2023/01/04 08:29:33;;;;;;;;;;;;;;;6.67;75.71;99267.00;7388448;19;19931;-82
2023/01/04 08:32:01;;;;;;;;;;;;;;;6.90;75.22;99272.38;7387388;19;20645;-82
2023/01/04 08:34:28;;;;;;;;;;;;;;;6.64;75.60;99274.28;7390153;19;19936;-83
2023/01/04 08:36:55;;;;;;;;;;;;;;;6.75;75.39;99275.19;7387079;19;19926;-82
2023/01/04 08:39:22;;;;;;;;;;;;;;;6.87;74.94;99275.25;7385968;19;19925;-81
2023/01/04 08:41:52;;;;;;;;;;;;;;;6.92;74.93;99266.06;7392222;19;19947;-83
2023/01/04 08:44:39;;;;;;;;;;;;;;;6.86;74.95;99255.16;7388118;19;19919;-82
2023/01/04 08:47:06;;;;;;;;;;;;;;;6.98;75.08;99254.28;7388785;19;22724;-82
2023/01/04 08:49:32;;;;;;;;;;;;;;;7.14;74.80;99249.59;7386632;19;19927;-83
2023/01/04 08:51:59;;;;;;;;;;;;;;;6.99;74.99;99241.00;7387853;19;19923;-84
2023/01/04 08:54:26;;;;;;;;;;;;;;;7.01;74.76;99239.09;7378834;19;19923;-84
2023/01/04 08:56:53;;;;;;;;;;;;;;;6.96;74.45;99228.09;7381209;19;19919;-83
2023/01/04 08:59:22;;;;;;;;;;;;;;;7.03;74.03;99224.06;7383711;19;19933;-83
2023/01/04 09:01:48;;;;;;;;;;;;;;;7.20;73.74;99228.06;7378655;19;19915;-85
2023/01/04 09:04:15;;;;;;;;;;;;;;;7.30;73.80;99235.31;7384609;19;19933;-83
2023/01/04 09:06:42;;;;;;;;;;;;;;;7.42;73.41;99237.84;7375755;19;20306;-83
2023/01/04 09:09:09;;;;;;;;;;;;;;;7.49;72.91;99240.84;7379349;19;19922;-83
2023/01/04 09:11:36;;;;;;;;;;;;;;;7.63;72.74;99245.09;7376867;19;19914;-81
2023/01/04 09:14:03;;;;;;;;;;;;;;;7.43;72.66;99243.97;7379734;19;19923;-83
2023/01/04 09:16:34;;;;;;;;;;;;;;;7.51;72.73;99243.38;7377415;19;19923;-81
2023/01/04 09:19:01;;;;;;;;;;;;;;;7.63;72.25;99250.34;7382299;19;19918;-83
2023/01/04 09:21:28;;;;;;;;;;;;;;;7.81;71.93;99242.84;7376667;19;19926;-81
2023/01/04 09:23:55;;;;;;;;;;;;;;;7.77;72.15;99231.72;7379387;19;19915;-80
2023/01/04 09:26:22;;;;;;;;;;;;;;;7.88;72.42;99236.16;7375353;19;19918;-85
2023/01/04 09:28:49;;;;;;;;;;;;;;;7.78;72.57;99236.03;7376400;19;19994;-81
2023/01/04 09:31:17;;;;;;;;;;;;;;;7.99;72.04;99240.63;7379882;19;19929;-81
2023/01/04 09:33:46;;;;;;;;;;;;;;;8.10;72.07;99243.25;7374101;19;19946;-80
2023/01/04 09:36:35;;;;;;;;;;;;;;;8.15;71.61;99241.09;7370064;19;19978;-85
2023/01/04 09:39:02;;;;;;;;;;;;;;;8.26;71.20;99238.47;7379135;19;19921;-82
2023/01/04 09:41:29;;;;;;;;;;;;;;;8.31;71.33;99240.75;7375927;19;19921;-81
2023/01/04 09:44:22;;;;;;;;;;;;;;;8.34;70.40;99227.31;7375454;19;19919;-81
2023/01/04 09:46:52;;;;;;;;;;;;;;;8.42;70.50;99227.56;7375084;19;19911;-81
2023/01/04 09:49:19;;;;;;;;;;;;;;;8.27;70.31;99226.97;7377383;19;20331;-82
2023/01/04 09:51:54;;;;;;;;;;;;;;;8.29;70.26;99230.34;7373051;19;19944;-81
2023/01/04 09:54:21;;;;;;;;;;;;;;;8.43;70.14;99223.16;7377426;19;19933;-81
2023/01/04 09:56:49;;;;;;;;;;;;;;;8.40;69.87;99228.66;7374786;19;19933;-82
2023/01/04 09:59:16;;;;;;;;;;;;;;;8.39;69.69;99232.22;7378341;19;19922;-82
2023/01/04 10:01:44;;;;;;;;;;;;;;;8.42;70.08;99222.31;7373516;19;19927;-83
2023/01/04 10:04:20;;;;;;;;;;;;;;;8.52;69.56;99219.78;7374200;19;20289;-81
2023/01/04 10:06:47;;;;;;;;;;;;;;;8.45;69.18;99206.28;7370497;19;19919;-81
2023/01/04 10:09:14;;;;;;;;;;;;;;;8.59;69.61;99206.97;7374762;19;19922;-81
2023/01/04 10:11:41;;;;;;;;;;;;;;;8.60;69.20;99204.19;7374177;19;20009;-83
2023/01/04 10:14:16;;;;;;;;;;;;;;;8.67;69.10;99201.91;7372031;19;20466;-81
2023/01/04 10:16:45;;;;;;;;;;;;;;;8.54;69.22;99194.97;7372652;19;19936;-81
2023/01/04 10:19:35;;;;;;;;;;;;;;;8.70;68.78;99193.75;7373771;19;19927;-82
2023/01/04 10:22:27;;;;;;;;;;;;;;;8.60;69.33;99183.09;7379293;19;20855;-81
2023/01/04 10:24:54;;;;;;;;;;;;;;;8.70;68.50;99186.66;7377597;19;20447;-82
2023/01/04 10:27:39;;;;;;;;;;;;;;;8.80;67.89;99173.56;7376863;19;19919;-82
2023/01/04 10:30:11;;;;;;;;;;;;;;;8.83;67.88;99186.50;7372267;19;19914;-80
2023/01/04 10:32:40;;;;;;;;;;;;;;;8.95;68.92;99187.31;7372864;19;20615;-81
2023/01/04 10:35:12;;;;;;;;;;;;;;;9.02;68.51;99183.19;7374447;19;20648;-82
2023/01/04 10:37:38;;;;;;;;;;;;;;;9.03;67.92;99176.97;7373215;19;21036;-82
2023/01/04 10:40:11;;;;;;;;;;;;;;;9.13;67.54;99169.94;7375551;19;19962;-82
2023/01/04 10:42:58;;;;;;;;;;;;;;;9.12;67.68;99160.38;7369061;19;20669;-80
2023/01/04 10:45:43;;;;;;;;;;;;;;;9.29;67.37;99166.88;7368057;19;20276;-81
2023/01/04 10:48:28;;;;;;;;;;;;;;;9.20;67.30;99160.56;7374501;19;20358;-81
2023/01/04 10:50:56;;;;;;;;;;;;;;;9.27;66.93;99155.63;7372976;19;19925;-81
2023/01/04 10:53:29;;;;;;;;;;;;;;;9.58;67.45;99156.50;7370990;19;20541;-81
2023/01/04 10:56:06;;;;;;;;;;;;;;;9.58;66.68;99151.22;7369939;19;20352;-82
2023/01/04 10:58:57;;;;;;;;;;;;;;;9.61;66.95;99158.03;7371988;19;19915;-81
2023/01/04 11:01:28;;;;;;;;;;;;;;;9.70;66.96;99148.50;7370042;19;19922;-82
2023/01/04 11:04:08;;;;;;;;;;;;;;;9.75;66.17;99146.31;7366576;19;19923;-80
2023/01/04 11:06:39;;;;;;;;;;;;;;;9.53;65.17;99134.94;7366377;19;19929;-80
2023/01/04 11:09:12;;;;;;;;;;;;;;;9.79;65.64;99134.50;7374348;19;19918;-81
2023/01/04 11:11:42;;;;;;;;;;;;;;;9.75;65.07;99122.53;7371139;19;19919;-82
2023/01/04 11:14:09;;;;;;;;;;;;;;;9.81;65.25;99124.63;7374082;19;19951;-82
2023/01/04 11:16:37;;;;;;;;;;;;;;;9.66;65.47;99114.44;7377123;19;19914;-83
2023/01/04 11:19:03;;;;;;;;;;;;;;;9.67;65.79;99105.53;7382283;19;20026;-85
2023/01/04 11:21:33;;;;;;;;;;;;;;;9.83;65.87;99106.84;7381501;19;19994;-82
2023/01/04 11:23:59;;;;;;;;;;;;;;;9.84;65.70;99100.59;7384861;19;20759;-81
2023/01/04 11:26:46;;;;;;;;;;;;;;;9.89;65.58;99101.84;7383035;19;19970;-83
2023/01/04 11:29:32;;;;;;;;;;;;;;;9.92;65.96;99099.91;7384931;19;20943;-81
2023/01/04 11:32:01;;;;;;;;;;;;;;;9.81;65.30;99092.94;7381040;19;20368;-82
2023/01/04 11:34:43;;;;;;;;;;;;;;;9.90;65.61;99105.34;7378129;19;20349;-85
2023/01/04 11:37:28;;;;;;;;;;;;;;;9.93;65.46;99094.50;7383396;19;19946;-81
2023/01/04 11:40:10;;;;;;;;;;;;;;;9.94;65.99;99096.19;7385947;19;19922;-81
2023/01/04 11:42:37;;;;;;;;;;;;;;;10.04;66.12;99093.56;7384891;19;19923;-82
2023/01/04 11:45:04;;;;;;;;;;;;;;;9.72;65.18;99085.81;7380881;19;19922;-82
2023/01/04 11:47:31;;;;;;;;;;;;;;;9.79;65.47;99081.66;7381393;19;19915;-81
2023/01/04 11:49:58;;;;;;;;;;;;;;;9.78;65.52;99072.88;7381391;19;19919;-81
2023/01/04 11:52:35;;;;;;;;;;;;;;;9.96;65.64;99075.72;7384279;19;19930;-84
2023/01/04 11:55:20;;;;;;;;;;;;;;;9.90;66.66;99081.56;7384275;19;20364;-83
2023/01/04 11:57:47;;;;;;;;;;;;;;;9.86;66.13;99083.63;7382408;19;19922;-82
2023/01/04 12:00:14;;;;;;;;;;;;;;;9.81;65.97;99085.00;7388613;19;19911;-81
2023/01/04 12:02:41;;;;;;;;;;;;;;;9.79;66.31;99084.28;7378793;19;19923;-85
2023/01/04 12:05:26;;;;;;;;;;;;;;;10.00;66.38;99094.78;7378030;19;19919;-81
2023/01/04 12:07:56;;;;;;;;;;;;;;;10.13;65.70;99091.91;7379933;19;19915;-80
2023/01/04 12:10:25;;;;;;;;;;;;;;;10.13;65.90;99091.91;7389348;19;20810;-81
2023/01/04 12:12:53;;;;;;;;;;;;;;;9.86;65.61;99078.34;7383195;19;19919;-81
2023/01/04 12:15:23;;;;;;;;;;;;;;;9.95;65.62;99092.53;7379972;19;19919;-80
2023/01/04 12:18:03;;;;;;;;;;;;;;;10.00;65.98;99079.75;7377480;19;20342;-81
2023/01/04 12:20:30;;;;;;;;;;;;;;;9.99;66.12;99072.00;7374420;19;20398;-81
2023/01/04 12:22:56;;;;;;;;;;;;;;;9.97;66.04;99071.28;7377053;19;19994;-81
2023/01/04 12:25:23;;;;;;;;;;;;;;;9.90;66.11;99068.34;7378710;19;19918;-83
2023/01/04 12:27:50;;;;;;;;;;;;;;;9.96;65.89;99065.16;7379150;19;19922;-82
2023/01/04 12:30:40;;;;;;;;;;;;;;;10.07;66.07;99065.03;7382360;19;20687;-80
2023/01/04 12:33:26;;;;;;;;;;;;;;;10.04;66.44;99064.50;7383286;19;20586;-81
2023/01/04 12:35:59;;;;;;;;;;;;;;;10.01;66.16;99062.94;7378948;19;19925;-80
2023/01/04 12:39:01;;;;;;;;;;;;;;;10.03;66.34;99060.16;7376350;19;19915;-82
2023/01/04 12:41:33;;;;;;;;;;;;;;;10.04;66.73;99052.09;7374644;19;20272;-81
2023/01/04 12:44:00;;;;;;;;;;;;;;;10.16;66.45;99046.69;7380321;19;19930;-82
2023/01/04 12:49:27;;;;;;;;;;;;;;;10.23;66.26;99047.81;7384849;19;19922;-80
2023/01/04 12:52:09;;;;;;;;;;;;;;;10.36;66.03;99050.25;7379457;19;19918;-81
2023/01/04 12:54:57;;;;;;;;;;;;;;;10.31;66.39;99037.41;7378567;19;20491;-81
2023/01/04 12:57:25;;;;;;;;;;;;;;;10.31;65.87;99040.06;7379559;19;20396;-81
2023/01/04 12:59:56;;;;;;;;;;;;;;;10.30;66.29;99041.88;7389086;19;20649;-82
2023/01/04 13:02:36;;;;;;;;;;;;;;;10.21;66.66;99028.59;7384844;19;19975;-82
2023/01/04 13:05:23;;;;;;;;;;;;;;;10.26;66.40;99016.63;7384267;19;19998;-81
2023/01/04 13:08:10;;;;;;;;;;;;;;;10.28;66.27;99022.66;7384020;19;20204;-85
2023/01/04 13:10:40;;;;;;;;;;;;;;;10.32;66.42;99018.78;7378136;19;20701;-82
2023/01/04 13:13:07;;;;;;;;;;;;;;;10.44;67.11;99010.72;7379040;19;19934;-82
2023/01/04 13:15:52;;;;;;;;;;;;;;;10.34;67.29;99013.34;7377756;19;19940;-82
2023/01/04 13:18:24;;;;;;;;;;;;;;;10.54;66.53;99008.91;7383852;19;19919;-81
2023/01/04 13:20:51;;;;;;;;;;;;;;;10.35;66.39;98999.16;7386459;19;19921;-83
2023/01/04 13:23:18;;;;;;;;;;;;;;;10.48;66.06;98991.78;7383330;19;19930;-81
2023/01/04 13:25:48;;;;;;;;;;;;;;;10.51;66.16;98988.84;7375984;19;20464;-81
2023/01/04 13:28:18;;;;;;;;;;;;;;;10.51;65.85;98996.78;7382408;19;20309;-80
2023/01/04 13:30:45;;;;;;;;;;;;;;;10.63;65.99;98999.28;7377168;19;19929;-81
2023/01/04 13:33:19;;;;;;;;;;;;;;;10.63;65.97;98994.81;7382312;19;20310;-84
2023/01/04 13:35:58;;;;;;;;;;;;;;;10.62;65.86;98994.97;7381776;19;19923;-83
2023/01/04 13:38:25;;;;;;;;;;;;;;;10.77;66.23;98993.56;7382327;19;19922;-84
2023/01/04 13:40:52;;;;;;;;;;;;;;;10.64;65.98;98991.22;7383651;19;20628;-82
2023/01/04 13:43:41;;;;;;;;;;;;;;;10.64;67.02;98993.03;7380083;19;19923;-83
2023/01/04 13:46:15;;;;;;;;;;;;;;;10.88;66.15;98980.16;7375198;19;20333;-82
2023/01/04 13:48:42;;;;;;;;;;;;;;;10.90;66.53;98983.50;7391813;19;19923;-81
2023/01/04 13:51:36;;;;;;;;;;;;;;;10.81;66.05;98972.94;7396610;19;19910;-82
2023/01/04 13:54:16;;;;;;;;;;;;;;;10.89;65.83;98976.53;7398130;19;19915;-81
2023/01/04 13:56:43;;;;;;;;;;;;;;;11.01;65.42;98968.44;7393212;19;19926;-80
2023/01/04 13:59:16;;;;;;;;;;;;;;;10.92;65.76;98972.75;7395304;19;19931;-83
2023/01/04 14:01:44;;;;;;;;;;;;;;;10.97;65.48;98955.47;7389274;19;19923;-82
2023/01/04 14:04:23;;;;;;;;;;;;;;;10.96;65.60;98951.16;7394508;19;19929;-82
2023/01/04 14:06:50;;;;;;;;;;;;;;;11.01;65.98;98955.19;7391131;19;19987;-82
2023/01/04 14:09:17;;;;;;;;;;;;;;;10.98;66.01;98949.22;7397062;19;19944;-83
2023/01/04 14:11:57;;;;;;;;;;;;;;;10.82;66.36;98959.56;7387788;19;19921;-82